Latest Coastal Weather Observations for Strahan

IDT60701

Issued at 3:51 pm EST Sunday 30 August 2015 (issued every 10 minutes, with the page automatically refreshed every 10 minutes)

About coastal observations | Map of coastal stations | Coastal observations for TAS | Marine services | Other Formats
Station Details ID: 097072 Name: STRAHAN AERODROME Lat: -42.16 Lon: 145.29 Height: 21.0 m
Data from the previous 72 hours. | See also: Recent months at Strahan
Date/Time
EST
Temp

°C
Wind Pressure Rain
since 9am
mm
Weather Cloud Vis
km
Sea
Height
m
Swell
Dir
 
Speed
knots
Gust
knots
hPa Trend Height
m
Period
s
Dir
30/03:30pm 12.5 SSE 9 14 1022.9 - 0.0 - - 10 - - - -
30/03:00pm 12.2 SSE 11 14 1022.9 - 0.0 - - 10 - - - -
30/02:30pm 12.7 SSE 10 13 1022.9 - 0.0 - - 10 - - - -
30/02:00pm 12.8 SSE 11 15 1023.2 - 0.0 - - 10 - - - -
30/01:30pm 12.4 SSE 11 15 1023.4 - 0.0 - - 10 - - - -
30/01:00pm 11.6 SSE 14 17 1023.8 - 0.0 - - 10 - - - -
30/12:30pm 11.6 SSE 14 18 1024.3 - 0.0 - - 10 - - - -
30/12:00pm 11.3 SSE 13 18 1024.9 - 0.0 - - 10 - - - -
30/11:30am 11.1 SSE 12 16 1025.5 - 0.0 - - 10 - - - -
30/11:00am 10.6 SE 11 15 1025.8 - 0.0 - - 10 - - - -
30/10:30am 9.5 SSE 13 18 1026.2 - 0.0 - - 10 - - - -
30/10:00am 9.0 SSE 14 18 1026.2 - 0.0 - - 10 - - - -
30/09:30am 8.5 SSE 12 16 1026.5 - 0.0 - - 10 - - - -
30/09:00am 7.6 SSE 9 12 1026.5 - 0.0 - - 10 - - - -
30/08:30am 6.9 SE 6 7 1026.4 - 0.0 - - 10 - - - -
30/08:00am 5.2 ESE 4 5 1026.3 - 0.0 - - 10 - - - -
30/07:30am 3.8 ENE 6 7 1026.2 - 0.0 - - 10 - - - -
30/07:00am 2.8 SE 7 9 1026.1 - 0.0 - - 10 - - - -
30/06:30am 3.5 SSE 8 9 1026.2 - 0.0 - Partly cloudy 10 - - - -
30/06:00am 3.0 SE 7 9 1026.0 - 0.0 - - 10 - - - -
30/05:30am 2.9 ESE 8 9 1025.9 - 0.0 - - 10 - - - -
30/05:00am 3.3 SE 9 10 1025.9 - 0.0 - - 10 - - - -
30/04:30am 3.1 ESE 9 11 1025.8 - 0.0 - - 10 - - - -
30/04:00am 4.2 SE 9 11 1025.7 - 0.0 - - 10 - - - -
30/03:30am 4.9 SSE 8 11 1025.8 - 0.0 - - 10 - - - -
30/03:00am 5.1 SSE 8 10 1025.9 - 0.0 - - 10 - - - -
30/02:30am 5.5 SE 8 11 1025.9 - 0.0 - Partly cloudy 10 - - - -
30/02:00am 6.8 SE 10 13 1026.3 - 0.0 - Cloudy 10 - - - -
30/01:30am 6.5 SE 8 13 1026.8 - 0.0 - Cloudy 10 - - - -
30/01:00am 6.7 SE 7 9 1027.0 - 0.0 - Partly cloudy 10 - - - -
30/12:30am 7.0 SE 7 11 1027.1 - 0.0 - Cloudy 10 - - - -
30/12:00am 7.3 SSE 9 13 1027.1 - 0.0 - Cloudy 10 - - - -
 
Date/Time
EST
Temp

°C
Wind Pressure Rain
since 9am
mm
Weather Cloud Vis
km
Sea
Height
m
Swell
Dir
 
Speed
knots
Gust
knots
hPa Trend Height
m
Period
s
Dir
29/11:30pm 7.3 SE 11 15 1027.1 - 0.0 - Cloudy 10 - - - -
29/11:00pm 7.5 SSE 12 17 1027.3 - 0.0 - Cloudy 10 - - - -
29/10:30pm 7.4 SSE 12 16 1027.4 - 0.0 - Cloudy 10 - - - -
29/10:00pm 7.6 SSE 10 16 1027.4 - 0.0 - Cloudy 10 - - - -
29/09:30pm 7.9 SSE 14 20 1027.2 - 0.0 - Cloudy 10 - - - -
29/09:00pm 7.8 SSE 12 19 1027.1 - 0.0 - Cloudy 10 - - - -
29/08:30pm 7.8 SSE 12 18 1026.9 - 0.0 - Cloudy 10 - - - -
29/08:00pm 7.8 SSE 12 17 1026.6 - 0.0 - Partly cloudy 10 - - - -
29/07:30pm 8.1 SSE 12 19 1026.4 - 0.0 - Cloudy 10 - - - -
29/07:00pm 8.1 SSE 13 19 1025.9 - 0.0 - Cloudy 10 - - - -
29/06:30pm 8.1 SSE 13 17 1025.4 - 0.0 - Partly cloudy 10 - - - -
29/06:00pm 8.1 SSE 13 19 1025.1 - 0.0 - Partly cloudy 10 - - - -
29/05:30pm 8.5 SSE 13 19 1025.1 - 0.0 - Partly cloudy 10 - - - -
29/05:00pm 9.2 SSE 12 18 1024.9 - 0.0 - Partly cloudy 10 - - - -
29/04:30pm 9.3 SSE 14 21 1024.7 - 0.0 - Partly cloudy 10 - - - -
29/04:00pm 9.9 S 16 22 1024.6 - 0.0 - Cloudy 10 - - - -
29/03:30pm 10.4 SSE 19 26 1024.6 - 0.0 - Cloudy 10 - - - -
29/03:00pm 10.3 SSE 17 25 1024.5 - 0.0 - Mostly cloudy 10 - - - -
29/02:30pm 10.7 S 18 26 1024.5 - 0.0 - Partly cloudy 10 - - - -
29/02:00pm 11.0 S 15 21 1024.3 - 0.0 - Partly cloudy 10 - - - -
29/01:36pm 11.8 S 16 26 1024.4 - 0.0 - Partly cloudy 10 - - - -
29/01:30pm 11.6 S 15 22 1024.4 - 0.0 - Partly cloudy 10 - - - -
29/01:00pm 11.4 S 16 21 1024.6 - 0.0 - Partly cloudy 10 - - - -
29/12:30pm 11.8 SSE 15 22 1024.7 - 0.0 - Partly cloudy 10 - - - -
29/12:00pm 12.1 S 16 23 1024.9 - 0.0 - Partly cloudy 10 - - - -
29/11:30am 11.1 S 15 22 1025.1 - 0.0 - Partly cloudy 10 - - - -
29/11:00am 11.1 S 15 21 1025.1 - 0.0 - Partly cloudy 10 - - - -
29/10:30am 10.0 S 14 19 1025.0 - 0.0 - Partly cloudy 6 - - - -
29/10:00am 10.7 SSE 16 25 1024.9 - 0.0 - Partly cloudy 10 - - - -
29/09:57am 10.7 SSE 15 25 1024.9 - 0.0 - Partly cloudy 10 - - - -
29/09:30am 10.7 SSE 14 23 1024.6 - 0.0 - Partly cloudy 10 - - - -
29/09:01am 9.7 SSE 15 25 1024.4 - 0.0 - Partly cloudy 10 - - - -
29/09:00am 9.7 SSE 16 25 1024.4 - 1.6 - Mostly clear 10 - - - -
29/08:57am 10.0 SSE 15 25 1024.4 - 1.6 - Partly cloudy 10 - - - -
29/08:30am 9.7 SSE 11 16 1024.3 - 1.6 - Partly cloudy 10 - - - -
29/08:00am 8.7 S 14 20 1023.8 - 1.6 - Partly cloudy 10 - - - -
29/07:41am 8.6 S 15 25 1023.4 - 1.6 - Partly cloudy 10 - - - -
29/07:30am 8.5 S 14 21 1023.3 - 1.6 - Partly cloudy 10 - - - -
29/07:00am 8.5 S 15 25 1023.1 - 1.6 - Partly cloudy 10 - - - -
29/06:52am 8.5 S 15 25 1023.0 - 1.6 - Partly cloudy 10 - - - -
29/06:36am 8.4 S 17 25 1022.8 - 1.6 - Partly cloudy 10 - - - -
29/06:30am 8.4 S 16 25 1022.8 - 1.6 - Partly cloudy 10 - - - -
29/06:00am 8.1 S 15 23 1022.6 - 1.6 Recent precip. Cloudy 10 - - - -
29/05:32am 7.9 S 17 23 1022.6 - 1.4 - Partly cloudy 10 - - - -
29/05:30am 7.9 S 17 23 1022.6 - 1.4 - Partly cloudy 10 - - - -
29/05:11am 7.7 SSW 19 25 1022.7 - 1.4 - Partly cloudy 10 - - - -
29/05:00am 7.6 SSW 19 26 1022.7 - 1.4 - Partly cloudy 9 - - - -
29/04:30am 7.4 S 18 26 1022.8 - 1.4 - Partly cloudy 8 - - - -
29/04:14am 7.2 SSW 19 27 1022.8 - 1.4 - Partly cloudy 7 - - - -
29/04:04am 7.0 SSW 16 24 1022.9 - 1.4 - Partly cloudy 5 - - - -
29/04:00am 6.9 SSW 16 25 1023.0 - 1.4 - Partly cloudy 6 - - - -
29/03:59am 6.9 SSW 16 25 1023.0 - 1.4 - Partly cloudy 6 - - - -
29/03:30am 6.9 S 16 22 1023.5 - 1.4 - Partly cloudy 9 - - - -
29/03:15am 6.8 S 19 29 1023.8 - 1.4 - Partly cloudy 10 - - - -
29/03:00am 6.7 S 18 25 1023.9 - 1.4 Recent precip. Cloudy 10 - - - -
29/02:30am 6.7 SSW 17 25 1024.2 - 1.4 - Partly cloudy 9 - - - -
29/02:00am 6.6 S 18 28 1024.4 - 1.2 - Partly cloudy 10 - - - -
29/01:49am 6.5 S 15 26 1024.4 - 1.2 - Partly cloudy 8 - - - -
29/01:30am 6.4 S 16 23 1024.6 - 1.0 - Partly cloudy 10 - - - -
29/01:00am 6.1 S 19 29 1024.8 - 0.6 - Partly cloudy 9 - - - -
29/12:53am 6.0 SSW 17 29 1024.9 - 0.6 - Partly cloudy 9 - - - -
29/12:30am 6.0 S 10 14 1025.1 - 0.4 - Partly cloudy 7 - - - -
29/12:00am 5.8 S 12 18 1025.4 - 0.2 Recent precip. Cloudy 10 - - - -
 
Date/Time
EST
Temp

°C
Wind Pressure Rain
since 9am
mm
Weather Cloud Vis
km
Sea
Height
m
Swell
Dir
 
Speed
knots
Gust
knots
hPa Trend Height
m
Period
s
Dir
28/11:30pm 5.4 SSW 13 18 1025.7 - 0.0 - Partly cloudy 10 - - - -
28/11:12pm 5.9 S 15 25 1026.0 - 0.0 - Partly cloudy 10 - - - -
28/11:00pm 5.6 SSW 10 15 1026.1 - 0.0 - Partly cloudy 10 - - - -
28/10:30pm 6.5 SSW 15 26 1026.4 - 0.0 - Partly cloudy 10 - - - -
28/10:00pm 6.5 SSW 15 23 1026.7 - 0.0 - Partly cloudy 10 - - - -
28/09:30pm 5.7 SSW 11 14 1026.9 - 0.0 - Partly cloudy 10 - - - -
28/09:00pm 5.5 SSW 9 13 1027.3 - 0.0 - Mostly cloudy 10 - - - -
28/08:30pm 5.2 SSW 12 16 1027.5 - 0.0 - Partly cloudy 10 - - - -
28/08:00pm 4.3 SSE 6 8 1027.6 - 0.0 - Partly cloudy 10 - - - -
28/07:30pm 5.2 SSE 10 15 1027.7 - 0.0 - Partly cloudy 10 - - - -
28/07:00pm 5.1 SSE 10 14 1027.6 - 0.0 - Partly cloudy 10 - - - -
28/06:30pm 5.6 S 9 12 1027.5 - 0.0 - Partly cloudy 10 - - - -
28/06:00pm 5.9 SSE 10 16 1027.2 - 0.0 - - 10 - - - -
28/05:30pm 6.8 SSE 15 23 1027.2 - 0.0 - Partly cloudy 10 - - - -
28/05:00pm 7.8 S 12 18 1027.0 - 0.0 - Partly cloudy 10 - - - -
28/04:30pm 8.4 SSE 16 21 1026.9 - 0.0 - - 10 - - - -
28/04:00pm 8.9 SSE 14 20 1026.8 - 0.0 - - 10 - - - -
28/03:45pm 9.0 SSE 17 27 1026.7 - 0.0 - - 10 - - - -
28/03:30pm 9.2 SSE 16 22 1026.7 - 0.0 - Partly cloudy 10 - - - -
28/03:13pm 9.4 SSE 17 28 1026.6 - 0.0 - Partly cloudy 10 - - - -
28/03:00pm 9.7 SSE 17 25 1026.6 - 0.0 - Mostly clear 10 - - - -
28/02:30pm 10.2 SE 11 19 1026.6 - 0.0 - Partly cloudy 10 - - - -
28/02:00pm 9.4 SSE 12 16 1026.9 - 0.0 - Partly cloudy 10 - - - -
28/01:30pm 9.1 SSE 12 17 1027.3 - 0.0 - Partly cloudy 10 - - - -
28/01:00pm 7.2 SSE 21 30 1027.7 - 0.0 - Partly cloudy 10 - - - -
28/12:55pm 9.6 SSE 17 27 1027.5 - 0.0 - Partly cloudy 10 - - - -
28/12:30pm 8.9 SSE 16 23 1027.9 - 0.0 - - 10 - - - -
28/12:00pm 8.6 SSE 19 25 1028.0 - 0.0 - - 10 - - - -
28/11:30am 9.6 SE 18 23 1028.2 - 0.0 - - 10 - - - -
28/11:19am 9.5 SE 15 25 1028.2 - 0.0 - - 10 - - - -
28/11:00am 9.6 SSE 14 18 1028.3 - 0.0 - - 10 - - - -
28/10:30am 9.1 SE 13 18 1028.4 - 0.0 - - 10 - - - -
28/10:00am 8.1 SE 14 21 1028.5 - 0.0 - - 10 - - - -
28/09:30am 7.9 SSE 13 17 1028.6 - 0.0 - - 10 - - - -
28/09:00am 7.0 SSE 14 19 1028.4 - 0.2 - - 10 - - - -
28/08:30am 6.7 SSE 13 18 1028.0 - 0.2 - - 10 - - - -
28/08:00am 6.0 SSE 13 18 1027.8 - 0.2 - - 10 - - - -
28/07:30am 5.1 SE 13 17 1027.2 - 0.2 - - 10 - - - -
28/07:00am 4.8 SE 13 21 1026.9 - 0.2 - - 10 - - - -
28/06:30am 4.8 SE 12 16 1026.5 - 0.2 - - 10 - - - -
28/06:00am 5.1 SSE 12 18 1026.2 - 0.2 - - 10 - - - -
28/05:30am 5.5 SSE 15 20 1025.9 - 0.2 - - 10 - - - -
28/05:00am 5.9 SSE 14 19 1025.3 - 0.2 - Partly cloudy 10 - - - -
28/04:30am 6.1 SSE 14 19 1025.1 - 0.2 - Partly cloudy 10 - - - -
28/04:00am 6.5 SSE 15 22 1024.9 - 0.2 - Cloudy 10 - - - -
28/03:30am 6.3 SSE 15 22 1024.6 - 0.2 - Partly cloudy 10 - - - -
28/03:00am 6.6 SSE 14 19 1024.6 - 0.2 Recent precip. Cloudy 10 - - - -
28/02:30am 6.5 SSE 8 14 1024.7 - 0.0 - Partly cloudy 10 - - - -
28/02:25am 4.9 SE 5 9 1024.7 - 0.0 - Partly cloudy 10 - - - -
28/02:02am 3.4 SSE 3 5 1024.7 - 0.0 - Partly cloudy 2 - - - -
28/02:00am 3.4 SSE 3 5 1024.7 - 0.0 - Partly cloudy 2 - - - -
28/01:49am 3.2 E 3 5 1024.7 - 0.0 - Partly cloudy 5 - - - -
28/01:30am 2.3 ENE 2 3 1024.5 - 0.0 - - 10 - - - -
28/01:00am 3.8 CALM 0 0 1024.4 - 0.0 - - 10 - - - -
28/12:30am 2.8 ENE 2 3 1024.6 - 0.0 - - 10 - - - -
28/12:00am 3.9 CALM 0 0 1024.5 - 0.0 - Partly cloudy 10 - - - -
 
Date/Time
EST
Temp

°C
Wind Pressure Rain
since 9am
mm
Weather Cloud Vis
km
Sea
Height
m
Swell
Dir
 
Speed
knots
Gust
knots
hPa Trend Height
m
Period
s
Dir
27/11:30pm 4.2 ENE 4 5 1024.7 - 0.0 - Partly cloudy 10 - - - -
27/11:00pm 3.8 SE 2 4 1024.8 - 0.0 - Partly cloudy 10 - - - -
27/10:30pm 4.6 CALM 0 3 1024.8 - 0.0 - Partly cloudy 10 - - - -
27/10:00pm 4.8 ESE 3 4 1024.7 - 0.0 - - 10 - - - -
27/09:30pm 6.0 ESE 3 4 1024.8 - 0.0 - Partly cloudy 10 - - - -
27/09:00pm 5.9 SSE 5 6 1024.7 - 0.0 - Mostly clear 10 - - - -
27/08:30pm 6.8 SSE 5 6 1024.4 - 0.0 - Partly cloudy 10 - - - -
27/08:00pm 6.6 SE 3 4 1024.2 - 0.0 - Partly cloudy 10 - - - -
27/07:30pm 7.7 SE 6 8 1024.0 - 0.0 - Cloudy 10 - - - -
27/07:00pm 8.1 SSE 6 8 1023.6 - 0.0 - Partly cloudy 10 - - - -
27/06:30pm 9.0 S 8 12 1023.4 - 0.0 - Partly cloudy 10 - - - -
27/06:00pm 8.6 SSW 11 15 1023.1 - 0.0 - - 10 - - - -
27/05:30pm 9.1 SSW 9 11 1022.7 - 0.0 - - 10 - - - -
27/05:00pm 10.9 SSW 9 13 1022.6 - 0.0 - Partly cloudy 10 - - - -
27/04:30pm 11.5 SSW 13 17 1022.4 - 0.0 - - 10 - - - -
27/04:00pm 12.2 SSW 12 16 1022.4 - 0.0 - - 10 - - - -

Other Formats:

Comma delimited format used in spreadsheet applications
http://www.bom.gov.au/fwo/IDT60701/IDT60701.94956.axf

JavaScript Object Notation format (JSON) in row-major order
http://www.bom.gov.au/fwo/IDT60701/IDT60701.94956.json